sensor_id;sensor_type;location;lat;lon;timestamp;P1;durP1;ratioP1;P2;durP2;ratioP2
30539;SDS011;17321;46.312;4.776;2023-07-29T00:00:54;4.07;;;1.58;;
30539;SDS011;17321;46.312;4.776;2023-07-29T00:03:21;4.60;;;1.00;;
30539;SDS011;17321;46.312;4.776;2023-07-29T00:05:47;1.83;;;1.00;;
30539;SDS011;17321;46.312;4.776;2023-07-29T00:08:13;1.55;;;1.27;;
30539;SDS011;17321;46.312;4.776;2023-07-29T00:10:40;2.15;;;1.00;;
30539;SDS011;17321;46.312;4.776;2023-07-29T00:13:06;3.08;;;1.40;;
30539;SDS011;17321;46.312;4.776;2023-07-29T00:15:33;1.33;;;1.20;;
30539;SDS011;17321;46.312;4.776;2023-07-29T00:17:59;1.10;;;1.10;;
30539;SDS011;17321;46.312;4.776;2023-07-29T00:20:25;1.70;;;1.25;;
30539;SDS011;17321;46.312;4.776;2023-07-29T00:22:51;1.75;;;1.65;;
30539;SDS011;17321;46.312;4.776;2023-07-29T00:25:23;2.03;;;1.15;;
30539;SDS011;17321;46.312;4.776;2023-07-29T00:27:49;3.42;;;1.27;;
30539;SDS011;17321;46.312;4.776;2023-07-29T00:30:15;1.20;;;1.10;;
30539;SDS011;17321;46.312;4.776;2023-07-29T00:32:41;3.00;;;1.48;;
30539;SDS011;17321;46.312;4.776;2023-07-29T00:35:07;1.23;;;1.00;;
30539;SDS011;17321;46.312;4.776;2023-07-29T00:37:33;4.22;;;1.35;;
30539;SDS011;17321;46.312;4.776;2023-07-29T00:40:00;1.27;;;1.17;;
30539;SDS011;17321;46.312;4.776;2023-07-29T00:42:26;2.97;;;1.40;;
30539;SDS011;17321;46.312;4.776;2023-07-29T00:44:52;2.95;;;1.70;;
30539;SDS011;17321;46.312;4.776;2023-07-29T00:47:18;2.00;;;1.52;;
30539;SDS011;17321;46.312;4.776;2023-07-29T00:49:44;1.70;;;1.55;;
30539;SDS011;17321;46.312;4.776;2023-07-29T00:52:11;2.67;;;1.48;;
30539;SDS011;17321;46.312;4.776;2023-07-29T00:54:38;4.47;;;1.33;;
30539;SDS011;17321;46.312;4.776;2023-07-29T00:57:04;3.42;;;1.67;;
30539;SDS011;17321;46.312;4.776;2023-07-29T00:59:31;2.03;;;1.42;;
30539;SDS011;17321;46.312;4.776;2023-07-29T01:01:58;3.08;;;1.50;;
30539;SDS011;17321;46.312;4.776;2023-07-29T01:04:25;3.13;;;1.45;;
30539;SDS011;17321;46.312;4.776;2023-07-29T01:06:58;1.88;;;1.35;;
30539;SDS011;17321;46.312;4.776;2023-07-29T01:10:30;2.17;;;1.52;;
30539;SDS011;17321;46.312;4.776;2023-07-29T01:15:01;1.65;;;1.50;;
30539;SDS011;17321;46.312;4.776;2023-07-29T01:17:32;1.58;;;1.25;;
30539;SDS011;17321;46.312;4.776;2023-07-29T01:22:28;3.38;;;1.52;;
30539;SDS011;17321;46.312;4.776;2023-07-29T01:24:56;3.60;;;1.70;;
30539;SDS011;17321;46.312;4.776;2023-07-29T01:27:22;1.92;;;1.42;;
30539;SDS011;17321;46.312;4.776;2023-07-29T01:29:48;4.88;;;1.50;;
30539;SDS011;17321;46.312;4.776;2023-07-29T01:32:28;1.42;;;1.30;;
30539;SDS011;17321;46.312;4.776;2023-07-29T01:35:19;1.83;;;1.33;;
30539;SDS011;17321;46.312;4.776;2023-07-29T01:37:41;3.65;;;1.30;;
30539;SDS011;17321;46.312;4.776;2023-07-29T01:40:09;1.37;;;1.27;;
30539;SDS011;17321;46.312;4.776;2023-07-29T01:42:36;1.63;;;1.52;;
30539;SDS011;17321;46.312;4.776;2023-07-29T01:45:02;1.80;;;1.40;;
30539;SDS011;17321;46.312;4.776;2023-07-29T01:47:30;1.52;;;1.23;;
30539;SDS011;17321;46.312;4.776;2023-07-29T01:49:56;3.28;;;1.50;;
30539;SDS011;17321;46.312;4.776;2023-07-29T01:52:22;1.38;;;1.25;;
30539;SDS011;17321;46.312;4.776;2023-07-29T01:54:48;3.25;;;1.70;;
30539;SDS011;17321;46.312;4.776;2023-07-29T01:57:14;1.73;;;1.40;;
30539;SDS011;17321;46.312;4.776;2023-07-29T01:59:40;2.97;;;1.83;;
30539;SDS011;17321;46.312;4.776;2023-07-29T02:02:06;5.22;;;1.58;;
30539;SDS011;17321;46.312;4.776;2023-07-29T02:04:33;1.30;;;1.20;;
30539;SDS011;17321;46.312;4.776;2023-07-29T02:06:59;1.73;;;1.45;;
30539;SDS011;17321;46.312;4.776;2023-07-29T02:09:25;1.52;;;1.42;;
30539;SDS011;17321;46.312;4.776;2023-07-29T02:11:51;1.45;;;1.35;;
30539;SDS011;17321;46.312;4.776;2023-07-29T02:14:17;1.63;;;1.33;;
30539;SDS011;17321;46.312;4.776;2023-07-29T02:16:43;1.33;;;1.23;;
30539;SDS011;17321;46.312;4.776;2023-07-29T02:19:09;1.60;;;1.50;;
30539;SDS011;17321;46.312;4.776;2023-07-29T02:21:35;1.40;;;1.30;;
30539;SDS011;17321;46.312;4.776;2023-07-29T02:24:01;1.30;;;1.20;;
30539;SDS011;17321;46.312;4.776;2023-07-29T02:26:28;2.13;;;1.80;;
30539;SDS011;17321;46.312;4.776;2023-07-29T02:28:54;2.80;;;1.50;;
30539;SDS011;17321;46.312;4.776;2023-07-29T02:33:46;2.08;;;1.50;;
30539;SDS011;17321;46.312;4.776;2023-07-29T02:36:12;4.00;;;1.67;;
30539;SDS011;17321;46.312;4.776;2023-07-29T02:38:39;1.30;;;1.08;;
30539;SDS011;17321;46.312;4.776;2023-07-29T02:41:05;2.97;;;1.55;;
30539;SDS011;17321;46.312;4.776;2023-07-29T02:43:33;1.83;;;1.40;;
30539;SDS011;17321;46.312;4.776;2023-07-29T02:46:00;1.92;;;1.20;;
30539;SDS011;17321;46.312;4.776;2023-07-29T02:48:26;4.32;;;1.40;;
30539;SDS011;17321;46.312;4.776;2023-07-29T02:50:53;4.10;;;1.50;;
30539;SDS011;17321;46.312;4.776;2023-07-29T02:53:19;4.75;;;1.55;;
30539;SDS011;17321;46.312;4.776;2023-07-29T02:55:45;2.72;;;1.45;;
30539;SDS011;17321;46.312;4.776;2023-07-29T02:58:11;1.80;;;1.17;;
30539;SDS011;17321;46.312;4.776;2023-07-29T03:00:37;1.30;;;1.20;;
30539;SDS011;17321;46.312;4.776;2023-07-29T03:03:06;2.80;;;1.60;;
30539;SDS011;17321;46.312;4.776;2023-07-29T03:05:33;2.13;;;1.40;;
30539;SDS011;17321;46.312;4.776;2023-07-29T03:07:59;1.20;;;1.10;;
30539;SDS011;17321;46.312;4.776;2023-07-29T03:10:25;7.55;;;1.48;;
30539;SDS011;17321;46.312;4.776;2023-07-29T03:12:53;1.63;;;1.50;;
30539;SDS011;17321;46.312;4.776;2023-07-29T03:15:23;2.58;;;1.30;;
30539;SDS011;17321;46.312;4.776;2023-07-29T03:17:50;2.78;;;1.40;;
30539;SDS011;17321;46.312;4.776;2023-07-29T03:20:16;1.92;;;1.30;;
30539;SDS011;17321;46.312;4.776;2023-07-29T03:22:45;5.28;;;1.60;;
30539;SDS011;17321;46.312;4.776;2023-07-29T03:25:11;1.90;;;1.20;;
30539;SDS011;17321;46.312;4.776;2023-07-29T03:27:38;1.13;;;1.10;;
30539;SDS011;17321;46.312;4.776;2023-07-29T03:30:05;2.80;;;1.10;;
30539;SDS011;17321;46.312;4.776;2023-07-29T03:32:32;1.33;;;1.23;;
30539;SDS011;17321;46.312;4.776;2023-07-29T03:34:58;2.40;;;1.33;;
30539;SDS011;17321;46.312;4.776;2023-07-29T03:37:24;2.72;;;1.23;;
30539;SDS011;17321;46.312;4.776;2023-07-29T03:39:50;1.85;;;1.15;;
30539;SDS011;17321;46.312;4.776;2023-07-29T03:42:17;2.40;;;1.27;;
30539;SDS011;17321;46.312;4.776;2023-07-29T03:44:43;4.20;;;1.67;;
30539;SDS011;17321;46.312;4.776;2023-07-29T03:47:09;1.98;;;1.23;;
30539;SDS011;17321;46.312;4.776;2023-07-29T03:49:35;3.25;;;1.40;;
30539;SDS011;17321;46.312;4.776;2023-07-29T03:52:01;1.90;;;1.30;;
30539;SDS011;17321;46.312;4.776;2023-07-29T03:54:27;3.05;;;1.52;;
30539;SDS011;17321;46.312;4.776;2023-07-29T03:56:54;2.13;;;1.50;;
30539;SDS011;17321;46.312;4.776;2023-07-29T03:59:20;2.17;;;1.40;;
30539;SDS011;17321;46.312;4.776;2023-07-29T04:01:47;1.70;;;1.30;;
30539;SDS011;17321;46.312;4.776;2023-07-29T04:04:14;7.68;;;1.70;;
30539;SDS011;17321;46.312;4.776;2023-07-29T04:06:40;2.95;;;1.90;;
30539;SDS011;17321;46.312;4.776;2023-07-29T04:09:06;2.95;;;1.60;;
30539;SDS011;17321;46.312;4.776;2023-07-29T04:11:33;4.20;;;1.60;;
30539;SDS011;17321;46.312;4.776;2023-07-29T04:13:59;1.60;;;1.25;;
30539;SDS011;17321;46.312;4.776;2023-07-29T04:16:25;1.42;;;1.33;;
30539;SDS011;17321;46.312;4.776;2023-07-29T04:18:51;2.05;;;1.55;;
30539;SDS011;17321;46.312;4.776;2023-07-29T04:21:17;4.13;;;1.50;;
30539;SDS011;17321;46.312;4.776;2023-07-29T04:23:43;1.95;;;1.40;;
30539;SDS011;17321;46.312;4.776;2023-07-29T04:26:09;6.05;;;1.67;;
30539;SDS011;17321;46.312;4.776;2023-07-29T04:28:36;1.52;;;1.40;;
30539;SDS011;17321;46.312;4.776;2023-07-29T04:31:02;1.77;;;1.50;;
30539;SDS011;17321;46.312;4.776;2023-07-29T04:33:29;5.18;;;1.58;;
30539;SDS011;17321;46.312;4.776;2023-07-29T04:35:55;2.17;;;1.63;;
30539;SDS011;17321;46.312;4.776;2023-07-29T04:38:21;4.60;;;1.40;;
30539;SDS011;17321;46.312;4.776;2023-07-29T04:40:50;4.63;;;2.20;;
30539;SDS011;17321;46.312;4.776;2023-07-29T04:43:16;1.65;;;1.30;;
30539;SDS011;17321;46.312;4.776;2023-07-29T04:45:43;2.17;;;1.60;;
30539;SDS011;17321;46.312;4.776;2023-07-29T04:48:09;1.85;;;1.52;;
30539;SDS011;17321;46.312;4.776;2023-07-29T04:50:35;3.65;;;1.50;;
30539;SDS011;17321;46.312;4.776;2023-07-29T04:53:01;5.30;;;1.50;;
30539;SDS011;17321;46.312;4.776;2023-07-29T04:55:28;4.13;;;1.45;;
30539;SDS011;17321;46.312;4.776;2023-07-29T04:57:54;2.10;;;1.55;;
30539;SDS011;17321;46.312;4.776;2023-07-29T05:00:20;1.95;;;1.65;;
30539;SDS011;17321;46.312;4.776;2023-07-29T05:02:46;2.72;;;1.20;;
30539;SDS011;17321;46.312;4.776;2023-07-29T05:05:12;2.30;;;1.50;;
30539;SDS011;17321;46.312;4.776;2023-07-29T05:07:38;3.40;;;1.65;;
30539;SDS011;17321;46.312;4.776;2023-07-29T05:10:04;4.07;;;1.50;;
30539;SDS011;17321;46.312;4.776;2023-07-29T05:12:31;1.50;;;1.40;;
30539;SDS011;17321;46.312;4.776;2023-07-29T05:14:58;1.40;;;1.20;;
30539;SDS011;17321;46.312;4.776;2023-07-29T05:17:25;1.50;;;1.40;;
30539;SDS011;17321;46.312;4.776;2023-07-29T05:19:51;3.17;;;2.00;;
30539;SDS011;17321;46.312;4.776;2023-07-29T05:22:17;2.28;;;1.63;;
30539;SDS011;17321;46.312;4.776;2023-07-29T05:24:43;4.00;;;2.30;;
30539;SDS011;17321;46.312;4.776;2023-07-29T05:27:09;2.65;;;1.70;;
30539;SDS011;17321;46.312;4.776;2023-07-29T05:29:35;1.92;;;1.58;;
30539;SDS011;17321;46.312;4.776;2023-07-29T05:32:02;2.10;;;1.65;;
30539;SDS011;17321;46.312;4.776;2023-07-29T05:34:29;5.32;;;1.77;;
30539;SDS011;17321;46.312;4.776;2023-07-29T05:36:55;3.83;;;1.73;;
30539;SDS011;17321;46.312;4.776;2023-07-29T05:39:21;3.85;;;1.70;;
30539;SDS011;17321;46.312;4.776;2023-07-29T05:41:49;3.75;;;1.65;;
30539;SDS011;17321;46.312;4.776;2023-07-29T05:44:15;2.85;;;1.60;;
30539;SDS011;17321;46.312;4.776;2023-07-29T05:46:41;4.05;;;1.65;;
30539;SDS011;17321;46.312;4.776;2023-07-29T05:49:07;2.72;;;1.80;;
30539;SDS011;17321;46.312;4.776;2023-07-29T05:51:33;3.75;;;2.00;;
30539;SDS011;17321;46.312;4.776;2023-07-29T05:54:00;2.13;;;1.50;;
30539;SDS011;17321;46.312;4.776;2023-07-29T05:56:26;2.63;;;1.98;;
30539;SDS011;17321;46.312;4.776;2023-07-29T05:58:52;3.40;;;2.13;;
30539;SDS011;17321;46.312;4.776;2023-07-29T06:01:18;2.28;;;1.50;;
30539;SDS011;17321;46.312;4.776;2023-07-29T06:03:46;3.67;;;1.85;;
30539;SDS011;17321;46.312;4.776;2023-07-29T06:06:12;4.85;;;1.77;;
30539;SDS011;17321;46.312;4.776;2023-07-29T06:08:38;5.78;;;1.85;;
30539;SDS011;17321;46.312;4.776;2023-07-29T06:11:04;2.22;;;1.80;;
30539;SDS011;17321;46.312;4.776;2023-07-29T06:15:59;4.72;;;1.65;;
30539;SDS011;17321;46.312;4.776;2023-07-29T06:18:26;2.55;;;2.35;;
30539;SDS011;17321;46.312;4.776;2023-07-29T06:20:52;4.57;;;2.25;;
30539;SDS011;17321;46.312;4.776;2023-07-29T06:23:18;2.42;;;1.95;;
30539;SDS011;17321;46.312;4.776;2023-07-29T06:25:44;3.92;;;2.10;;
30539;SDS011;17321;46.312;4.776;2023-07-29T06:28:10;6.45;;;2.05;;
30539;SDS011;17321;46.312;4.776;2023-07-29T06:30:36;2.83;;;2.10;;
30539;SDS011;17321;46.312;4.776;2023-07-29T06:33:02;3.63;;;2.53;;
30539;SDS011;17321;46.312;4.776;2023-07-29T06:35:28;2.30;;;2.10;;
30539;SDS011;17321;46.312;4.776;2023-07-29T06:37:54;2.00;;;1.75;;
30539;SDS011;17321;46.312;4.776;2023-07-29T06:40:20;4.07;;;2.10;;
30539;SDS011;17321;46.312;4.776;2023-07-29T06:42:47;2.22;;;1.95;;
30539;SDS011;17321;46.312;4.776;2023-07-29T06:45:13;2.97;;;1.92;;
30539;SDS011;17321;46.312;4.776;2023-07-29T06:47:40;4.22;;;1.60;;
30539;SDS011;17321;46.312;4.776;2023-07-29T06:50:06;1.48;;;1.35;;
30539;SDS011;17321;46.312;4.776;2023-07-29T06:52:33;1.75;;;1.60;;
30539;SDS011;17321;46.312;4.776;2023-07-29T06:54:59;4.95;;;2.45;;
30539;SDS011;17321;46.312;4.776;2023-07-29T06:57:25;4.10;;;2.00;;
30539;SDS011;17321;46.312;4.776;2023-07-29T06:59:51;3.97;;;1.85;;
30539;SDS011;17321;46.312;4.776;2023-07-29T07:02:17;12.70;;;2.20;;
30539;SDS011;17321;46.312;4.776;2023-07-29T07:04:43;5.80;;;1.60;;
30539;SDS011;17321;46.312;4.776;2023-07-29T07:07:10;3.92;;;2.00;;
30539;SDS011;17321;46.312;4.776;2023-07-29T07:09:36;2.25;;;1.85;;
30539;SDS011;17321;46.312;4.776;2023-07-29T07:12:02;6.07;;;2.20;;
30539;SDS011;17321;46.312;4.776;2023-07-29T07:14:28;3.72;;;2.10;;
30539;SDS011;17321;46.312;4.776;2023-07-29T07:16:54;2.50;;;2.03;;
30539;SDS011;17321;46.312;4.776;2023-07-29T07:19:20;2.72;;;2.15;;
30539;SDS011;17321;46.312;4.776;2023-07-29T07:21:46;5.47;;;2.38;;
30539;SDS011;17321;46.312;4.776;2023-07-29T07:24:12;2.70;;;1.80;;
30539;SDS011;17321;46.312;4.776;2023-07-29T07:26:38;5.35;;;2.35;;
30539;SDS011;17321;46.312;4.776;2023-07-29T07:29:05;4.28;;;2.22;;
30539;SDS011;17321;46.312;4.776;2023-07-29T07:31:33;2.17;;;2.08;;
30539;SDS011;17321;46.312;4.776;2023-07-29T07:34:00;3.00;;;2.22;;
30539;SDS011;17321;46.312;4.776;2023-07-29T07:36:27;4.95;;;2.42;;
30539;SDS011;17321;46.312;4.776;2023-07-29T07:38:53;2.92;;;2.40;;
30539;SDS011;17321;46.312;4.776;2023-07-29T07:41:20;5.50;;;3.25;;
30539;SDS011;17321;46.312;4.776;2023-07-29T07:43:46;5.82;;;3.10;;
30539;SDS011;17321;46.312;4.776;2023-07-29T07:46:12;4.25;;;2.75;;
30539;SDS011;17321;46.312;4.776;2023-07-29T07:48:38;4.88;;;3.22;;
30539;SDS011;17321;46.312;4.776;2023-07-29T07:51:13;7.78;;;3.40;;
30539;SDS011;17321;46.312;4.776;2023-07-29T07:53:40;5.78;;;2.28;;
30539;SDS011;17321;46.312;4.776;2023-07-29T07:56:06;4.28;;;2.72;;
30539;SDS011;17321;46.312;4.776;2023-07-29T07:58:32;4.70;;;3.00;;
30539;SDS011;17321;46.312;4.776;2023-07-29T08:01:02;2.45;;;2.25;;
30539;SDS011;17321;46.312;4.776;2023-07-29T08:03:29;4.90;;;2.65;;
30539;SDS011;17321;46.312;4.776;2023-07-29T08:05:55;3.35;;;2.50;;
30539;SDS011;17321;46.312;4.776;2023-07-29T08:08:21;4.38;;;2.42;;
30539;SDS011;17321;46.312;4.776;2023-07-29T08:10:47;3.92;;;2.40;;
30539;SDS011;17321;46.312;4.776;2023-07-29T08:13:13;2.75;;;2.30;;
30539;SDS011;17321;46.312;4.776;2023-07-29T08:15:39;2.90;;;2.40;;
30539;SDS011;17321;46.312;4.776;2023-07-29T08:18:06;3.40;;;2.80;;
30539;SDS011;17321;46.312;4.776;2023-07-29T08:20:32;4.22;;;2.38;;
30539;SDS011;17321;46.312;4.776;2023-07-29T08:22:58;3.00;;;2.60;;
30539;SDS011;17321;46.312;4.776;2023-07-29T08:25:24;4.22;;;2.83;;
30539;SDS011;17321;46.312;4.776;2023-07-29T08:27:50;4.13;;;2.65;;
30539;SDS011;17321;46.312;4.776;2023-07-29T08:30:16;10.02;;;2.70;;
30539;SDS011;17321;46.312;4.776;2023-07-29T08:32:43;4.15;;;2.35;;
30539;SDS011;17321;46.312;4.776;2023-07-29T08:35:10;3.80;;;2.40;;
30539;SDS011;17321;46.312;4.776;2023-07-29T08:37:36;3.35;;;2.53;;
30539;SDS011;17321;46.312;4.776;2023-07-29T08:40:02;4.90;;;2.72;;
30539;SDS011;17321;46.312;4.776;2023-07-29T08:42:29;4.13;;;3.10;;
30539;SDS011;17321;46.312;4.776;2023-07-29T08:44:55;4.93;;;2.78;;
30539;SDS011;17321;46.312;4.776;2023-07-29T08:47:21;3.38;;;2.55;;
30539;SDS011;17321;46.312;4.776;2023-07-29T08:49:48;4.25;;;3.13;;
30539;SDS011;17321;46.312;4.776;2023-07-29T08:52:16;3.40;;;2.90;;
30539;SDS011;17321;46.312;4.776;2023-07-29T08:54:42;2.97;;;2.67;;
30539;SDS011;17321;46.312;4.776;2023-07-29T08:57:08;3.67;;;2.88;;
30539;SDS011;17321;46.312;4.776;2023-07-29T08:59:34;3.05;;;2.85;;
30539;SDS011;17321;46.312;4.776;2023-07-29T09:02:01;5.22;;;2.60;;
30539;SDS011;17321;46.312;4.776;2023-07-29T09:04:27;6.47;;;3.63;;
30539;SDS011;17321;46.312;4.776;2023-07-29T09:06:53;4.13;;;3.13;;
30539;SDS011;17321;46.312;4.776;2023-07-29T09:09:21;5.32;;;2.95;;
30539;SDS011;17321;46.312;4.776;2023-07-29T09:11:48;4.22;;;3.00;;
30539;SDS011;17321;46.312;4.776;2023-07-29T09:14:14;3.92;;;3.20;;
30539;SDS011;17321;46.312;4.776;2023-07-29T09:16:40;4.93;;;2.88;;
30539;SDS011;17321;46.312;4.776;2023-07-29T09:19:06;3.90;;;2.97;;
30539;SDS011;17321;46.312;4.776;2023-07-29T09:21:32;3.30;;;2.65;;
30539;SDS011;17321;46.312;4.776;2023-07-29T09:24:02;3.33;;;3.03;;
30539;SDS011;17321;46.312;4.776;2023-07-29T09:26:29;7.55;;;3.55;;
30539;SDS011;17321;46.312;4.776;2023-07-29T09:28:57;4.63;;;2.90;;
30539;SDS011;17321;46.312;4.776;2023-07-29T09:31:26;3.95;;;2.67;;
30539;SDS011;17321;46.312;4.776;2023-07-29T09:33:58;6.95;;;3.03;;
30539;SDS011;17321;46.312;4.776;2023-07-29T09:36:25;4.78;;;3.40;;
30539;SDS011;17321;46.312;4.776;2023-07-29T09:38:52;3.65;;;2.90;;
30539;SDS011;17321;46.312;4.776;2023-07-29T09:41:21;7.22;;;3.22;;
30539;SDS011;17321;46.312;4.776;2023-07-29T09:43:48;4.03;;;2.95;;
30539;SDS011;17321;46.312;4.776;2023-07-29T09:46:21;8.35;;;3.92;;
30539;SDS011;17321;46.312;4.776;2023-07-29T09:48:48;5.40;;;3.35;;
30539;SDS011;17321;46.312;4.776;2023-07-29T09:51:15;3.67;;;3.35;;
30539;SDS011;17321;46.312;4.776;2023-07-29T09:53:42;6.55;;;3.72;;
30539;SDS011;17321;46.312;4.776;2023-07-29T09:56:09;4.60;;;3.65;;
30539;SDS011;17321;46.312;4.776;2023-07-29T09:58:35;5.00;;;3.45;;
30539;SDS011;17321;46.312;4.776;2023-07-29T10:01:03;5.32;;;3.72;;
30539;SDS011;17321;46.312;4.776;2023-07-29T10:03:30;6.53;;;3.70;;
30539;SDS011;17321;46.312;4.776;2023-07-29T10:05:59;5.35;;;4.07;;
30539;SDS011;17321;46.312;4.776;2023-07-29T10:08:25;11.50;;;4.25;;
30539;SDS011;17321;46.312;4.776;2023-07-29T10:10:53;5.45;;;3.50;;
30539;SDS011;17321;46.312;4.776;2023-07-29T10:13:20;6.63;;;3.83;;
30539;SDS011;17321;46.312;4.776;2023-07-29T10:15:46;6.18;;;3.65;;
30539;SDS011;17321;46.312;4.776;2023-07-29T10:18:12;10.02;;;4.40;;
30539;SDS011;17321;46.312;4.776;2023-07-29T10:20:38;6.40;;;4.75;;
30539;SDS011;17321;46.312;4.776;2023-07-29T10:23:06;8.95;;;4.03;;
30539;SDS011;17321;46.312;4.776;2023-07-29T10:25:39;9.35;;;3.92;;
30539;SDS011;17321;46.312;4.776;2023-07-29T10:28:09;8.18;;;3.83;;
30539;SDS011;17321;46.312;4.776;2023-07-29T10:30:38;3.72;;;3.38;;
30539;SDS011;17321;46.312;4.776;2023-07-29T10:33:05;6.57;;;3.30;;
30539;SDS011;17321;46.312;4.776;2023-07-29T10:35:34;5.90;;;3.25;;
30539;SDS011;17321;46.312;4.776;2023-07-29T10:38:01;4.30;;;3.20;;
30539;SDS011;17321;46.312;4.776;2023-07-29T10:40:43;6.10;;;3.13;;
30539;SDS011;17321;46.312;4.776;2023-07-29T10:43:10;7.00;;;3.88;;
30539;SDS011;17321;46.312;4.776;2023-07-29T10:45:37;3.72;;;3.28;;
30539;SDS011;17321;46.312;4.776;2023-07-29T10:50:35;5.13;;;3.85;;
30539;SDS011;17321;46.312;4.776;2023-07-29T10:53:02;7.78;;;4.00;;
30539;SDS011;17321;46.312;4.776;2023-07-29T10:55:29;4.10;;;3.70;;
30539;SDS011;17321;46.312;4.776;2023-07-29T10:58:11;5.32;;;3.80;;
30539;SDS011;17321;46.312;4.776;2023-07-29T11:00:38;6.85;;;4.28;;
30539;SDS011;17321;46.312;4.776;2023-07-29T11:03:05;5.03;;;4.07;;
30539;SDS011;17321;46.312;4.776;2023-07-29T11:05:50;6.70;;;5.78;;
30539;SDS011;17321;46.312;4.776;2023-07-29T11:08:29;3.92;;;3.58;;
30539;SDS011;17321;46.312;4.776;2023-07-29T11:13:21;7.38;;;4.07;;
30539;SDS011;17321;46.312;4.776;2023-07-29T11:15:47;4.45;;;3.58;;
30539;SDS011;17321;46.312;4.776;2023-07-29T11:18:15;4.32;;;3.70;;
30539;SDS011;17321;46.312;4.776;2023-07-29T11:20:41;4.43;;;4.00;;
30539;SDS011;17321;46.312;4.776;2023-07-29T11:23:07;7.72;;;4.13;;
30539;SDS011;17321;46.312;4.776;2023-07-29T11:25:33;8.95;;;4.50;;
30539;SDS011;17321;46.312;4.776;2023-07-29T11:28:00;4.88;;;4.13;;
30539;SDS011;17321;46.312;4.776;2023-07-29T11:30:26;5.10;;;4.20;;
30539;SDS011;17321;46.312;4.776;2023-07-29T11:32:54;7.07;;;3.92;;
30539;SDS011;17321;46.312;4.776;2023-07-29T11:35:20;5.72;;;4.13;;
30539;SDS011;17321;46.312;4.776;2023-07-29T11:37:47;4.75;;;3.90;;
30539;SDS011;17321;46.312;4.776;2023-07-29T11:40:21;7.45;;;4.53;;
30539;SDS011;17321;46.312;4.776;2023-07-29T11:42:48;5.07;;;4.57;;
30539;SDS011;17321;46.312;4.776;2023-07-29T11:45:18;4.93;;;4.00;;
30539;SDS011;17321;46.312;4.776;2023-07-29T11:47:45;4.82;;;4.28;;
30539;SDS011;17321;46.312;4.776;2023-07-29T11:50:11;6.85;;;4.28;;
30539;SDS011;17321;46.312;4.776;2023-07-29T11:52:41;7.13;;;4.57;;
30539;SDS011;17321;46.312;4.776;2023-07-29T11:55:08;4.82;;;4.30;;
30539;SDS011;17321;46.312;4.776;2023-07-29T11:57:35;5.07;;;4.22;;
30539;SDS011;17321;46.312;4.776;2023-07-29T12:00:02;6.63;;;4.63;;
30539;SDS011;17321;46.312;4.776;2023-07-29T12:02:29;5.90;;;4.55;;
30539;SDS011;17321;46.312;4.776;2023-07-29T12:04:56;6.00;;;5.00;;
30539;SDS011;17321;46.312;4.776;2023-07-29T12:07:23;8.98;;;5.45;;
30539;SDS011;17321;46.312;4.776;2023-07-29T12:09:49;9.98;;;5.65;;
30539;SDS011;17321;46.312;4.776;2023-07-29T12:12:16;5.18;;;3.85;;
30539;SDS011;17321;46.312;4.776;2023-07-29T12:14:43;9.30;;;4.72;;
30539;SDS011;17321;46.312;4.776;2023-07-29T12:17:10;6.30;;;4.70;;
30539;SDS011;17321;46.312;4.776;2023-07-29T12:19:37;5.82;;;4.60;;
30539;SDS011;17321;46.312;4.776;2023-07-29T12:22:04;6.25;;;4.57;;
30539;SDS011;17321;46.312;4.776;2023-07-29T12:24:31;4.85;;;4.20;;
30539;SDS011;17321;46.312;4.776;2023-07-29T12:26:57;5.22;;;4.35;;
30539;SDS011;17321;46.312;4.776;2023-07-29T12:29:23;5.85;;;4.18;;
30539;SDS011;17321;46.312;4.776;2023-07-29T12:31:55;6.45;;;4.35;;
30539;SDS011;17321;46.312;4.776;2023-07-29T12:34:24;7.93;;;4.28;;
30539;SDS011;17321;46.312;4.776;2023-07-29T12:36:51;5.60;;;3.92;;
30539;SDS011;17321;46.312;4.776;2023-07-29T12:41:43;5.63;;;4.00;;
30539;SDS011;17321;46.312;4.776;2023-07-29T12:44:10;4.93;;;3.88;;
30539;SDS011;17321;46.312;4.776;2023-07-29T12:46:36;5.82;;;4.15;;
30539;SDS011;17321;46.312;4.776;2023-07-29T12:49:02;4.90;;;4.10;;
30539;SDS011;17321;46.312;4.776;2023-07-29T12:51:28;6.95;;;5.13;;
30539;SDS011;17321;46.312;4.776;2023-07-29T12:53:54;6.68;;;4.28;;
30539;SDS011;17321;46.312;4.776;2023-07-29T12:56:20;8.02;;;5.03;;
30539;SDS011;17321;46.312;4.776;2023-07-29T12:58:46;7.80;;;5.70;;
30539;SDS011;17321;46.312;4.776;2023-07-29T13:01:13;8.93;;;6.45;;
30539;SDS011;17321;46.312;4.776;2023-07-29T13:03:42;8.68;;;5.90;;
30539;SDS011;17321;46.312;4.776;2023-07-29T13:06:08;8.07;;;5.13;;
30539;SDS011;17321;46.312;4.776;2023-07-29T13:08:34;11.55;;;6.88;;
30539;SDS011;17321;46.312;4.776;2023-07-29T13:11:00;10.40;;;5.43;;
30539;SDS011;17321;46.312;4.776;2023-07-29T13:13:27;8.35;;;5.32;;
30539;SDS011;17321;46.312;4.776;2023-07-29T13:15:53;9.32;;;5.40;;
30539;SDS011;17321;46.312;4.776;2023-07-29T13:18:19;11.43;;;5.03;;
30539;SDS011;17321;46.312;4.776;2023-07-29T13:20:45;7.43;;;5.60;;
30539;SDS011;17321;46.312;4.776;2023-07-29T13:23:11;7.00;;;4.88;;
30539;SDS011;17321;46.312;4.776;2023-07-29T13:25:37;8.95;;;4.90;;
30539;SDS011;17321;46.312;4.776;2023-07-29T13:28:03;9.10;;;4.95;;
30539;SDS011;17321;46.312;4.776;2023-07-29T13:30:30;10.88;;;6.45;;
30539;SDS011;17321;46.312;4.776;2023-07-29T13:32:56;6.03;;;4.97;;
30539;SDS011;17321;46.312;4.776;2023-07-29T13:35:22;11.38;;;5.40;;
30539;SDS011;17321;46.312;4.776;2023-07-29T13:37:48;11.32;;;5.45;;
30539;SDS011;17321;46.312;4.776;2023-07-29T13:40:14;7.32;;;4.60;;
30539;SDS011;17321;46.312;4.776;2023-07-29T13:42:40;7.32;;;4.28;;
30539;SDS011;17321;46.312;4.776;2023-07-29T13:45:06;3.70;;;3.33;;
30539;SDS011;17321;46.312;4.776;2023-07-29T13:47:33;5.20;;;3.55;;
30539;SDS011;17321;46.312;4.776;2023-07-29T13:49:59;6.70;;;4.15;;
30539;SDS011;17321;46.312;4.776;2023-07-29T13:52:26;5.68;;;3.50;;
30539;SDS011;17321;46.312;4.776;2023-07-29T13:54:52;5.45;;;3.85;;
30539;SDS011;17321;46.312;4.776;2023-07-29T13:57:18;6.07;;;4.25;;
30539;SDS011;17321;46.312;4.776;2023-07-29T13:59:44;5.78;;;3.83;;
30539;SDS011;17321;46.312;4.776;2023-07-29T14:02:10;5.13;;;4.13;;
30539;SDS011;17321;46.312;4.776;2023-07-29T14:04:36;16.77;;;4.80;;
30539;SDS011;17321;46.312;4.776;2023-07-29T14:07:02;5.85;;;4.45;;
30539;SDS011;17321;46.312;4.776;2023-07-29T14:09:28;5.50;;;3.97;;
30539;SDS011;17321;46.312;4.776;2023-07-29T14:11:54;6.88;;;5.00;;
30539;SDS011;17321;46.312;4.776;2023-07-29T14:14:21;8.80;;;4.60;;
30539;SDS011;17321;46.312;4.776;2023-07-29T14:16:47;3.90;;;3.50;;
30539;SDS011;17321;46.312;4.776;2023-07-29T14:19:14;7.15;;;4.50;;
30539;SDS011;17321;46.312;4.776;2023-07-29T14:21:40;5.50;;;3.80;;
30539;SDS011;17321;46.312;4.776;2023-07-29T14:24:06;7.63;;;4.18;;
30539;SDS011;17321;46.312;4.776;2023-07-29T14:26:33;5.75;;;3.33;;
30539;SDS011;17321;46.312;4.776;2023-07-29T14:28:59;8.27;;;4.43;;
30539;SDS011;17321;46.312;4.776;2023-07-29T14:31:25;7.35;;;3.50;;
30539;SDS011;17321;46.312;4.776;2023-07-29T14:33:52;5.88;;;3.55;;
30539;SDS011;17321;46.312;4.776;2023-07-29T14:36:18;8.90;;;3.70;;
30539;SDS011;17321;46.312;4.776;2023-07-29T14:38:44;7.95;;;3.92;;
30539;SDS011;17321;46.312;4.776;2023-07-29T14:41:10;6.22;;;2.88;;
30539;SDS011;17321;46.312;4.776;2023-07-29T14:43:36;4.38;;;3.40;;
30539;SDS011;17321;46.312;4.776;2023-07-29T14:46:02;6.25;;;3.13;;
30539;SDS011;17321;46.312;4.776;2023-07-29T14:48:28;4.75;;;3.17;;
30539;SDS011;17321;46.312;4.776;2023-07-29T14:50:55;5.53;;;3.78;;
30539;SDS011;17321;46.312;4.776;2023-07-29T14:53:21;8.25;;;4.75;;
30539;SDS011;17321;46.312;4.776;2023-07-29T14:55:47;6.90;;;4.13;;
30539;SDS011;17321;46.312;4.776;2023-07-29T14:58:13;6.60;;;4.40;;
30539;SDS011;17321;46.312;4.776;2023-07-29T15:00:39;10.85;;;4.47;;
30539;SDS011;17321;46.312;4.776;2023-07-29T15:03:05;4.53;;;3.50;;